createdAt,value
2022-11-27T00:01:49.163Z,100.00
2022-11-27T00:04:19.118Z,100.00
2022-11-27T00:06:48.369Z,100.00
2022-11-27T00:09:18.766Z,100.00
2022-11-27T00:11:48.016Z,100.00
2022-11-27T00:14:24.908Z,100.00
2022-11-27T00:16:54.255Z,100.00
2022-11-27T00:19:23.485Z,100.00
2022-11-27T00:21:53.368Z,100.00
2022-11-27T00:24:22.882Z,100.00
2022-11-27T00:26:52.345Z,100.00
2022-11-27T00:29:21.502Z,100.00
2022-11-27T00:31:58.196Z,100.00
2022-11-27T00:34:27.401Z,100.00
2022-11-27T00:36:56.950Z,100.00
2022-11-27T00:39:27.184Z,100.00
2022-11-27T00:41:56.488Z,100.00
2022-11-27T00:44:25.559Z,100.00
2022-11-27T00:47:01.851Z,100.00
2022-11-27T00:49:31.765Z,100.00
2022-11-27T00:52:00.890Z,100.00
2022-11-27T00:54:36.579Z,100.00
2022-11-27T00:57:06.538Z,100.00
2022-11-27T00:59:35.711Z,100.00
2022-11-27T01:02:07.168Z,100.00
2022-11-27T01:04:36.419Z,100.00
2022-11-27T01:07:05.625Z,100.00
2022-11-27T01:09:39.929Z,100.00
2022-11-27T01:12:09.899Z,100.00
2022-11-27T01:14:39.325Z,100.00
2022-11-27T01:17:10.752Z,100.00
2022-11-27T01:19:40.166Z,100.00
2022-11-27T01:22:09.292Z,100.00
2022-11-27T01:24:43.652Z,100.00
2022-11-27T01:27:12.848Z,100.00
2022-11-27T01:29:42.070Z,100.00
2022-11-27T01:32:13.240Z,100.00
2022-11-27T01:34:42.733Z,100.00
2022-11-27T01:37:11.918Z,100.00
2022-11-27T01:39:44.368Z,100.00
2022-11-27T01:42:23.622Z,100.00
2022-11-27T01:44:56.429Z,100.00
2022-11-27T01:47:37.365Z,100.00
2022-11-27T01:50:20.986Z,100.00
2022-11-27T01:52:59.452Z,100.00
2022-11-27T01:55:35.053Z,100.00
2022-11-27T01:58:10.419Z,100.00
2022-11-27T02:00:40.560Z,100.00
2022-11-27T02:03:11.864Z,100.00
2022-11-27T02:05:41.291Z,100.00
2022-11-27T02:08:14.660Z,100.00
2022-11-27T02:10:51.229Z,100.00
2022-11-27T02:13:28.601Z,100.00
2022-11-27T02:16:07.777Z,100.00
2022-11-27T02:18:46.401Z,100.00
2022-11-27T02:21:33.440Z,100.00
2022-11-27T02:24:29.350Z,100.00
2022-11-27T02:27:19.588Z,100.00
2022-11-27T02:29:59.039Z,100.00
2022-11-27T02:32:34.205Z,100.00
2022-11-27T02:35:10.109Z,100.00
2022-11-27T02:37:48.058Z,100.00
2022-11-27T02:40:23.616Z,100.00
2022-11-27T02:45:40.896Z,100.00
2022-11-27T02:48:12.091Z,100.00
2022-11-27T02:50:45.198Z,100.00
2022-11-27T02:53:19.975Z,100.00
2022-11-27T02:55:52.637Z,100.00
2022-11-27T02:58:31.809Z,100.00
2022-11-27T03:01:04.166Z,100.00
2022-11-27T03:03:37.534Z,100.00
2022-11-27T03:06:16.239Z,100.00
2022-11-27T03:08:59.546Z,100.00
2022-11-27T03:11:35.409Z,100.00
2022-11-27T03:14:08.763Z,99.94
2022-11-27T03:16:50.488Z,100.00
2022-11-27T03:19:24.726Z,100.00
2022-11-27T03:21:55.683Z,99.97
2022-11-27T03:24:25.443Z,99.78
2022-11-27T03:27:01.074Z,100.00
2022-11-27T03:29:37.348Z,100.00
2022-11-27T03:32:14.023Z,99.81
2022-11-27T03:34:44.162Z,99.69
2022-11-27T03:37:13.334Z,99.58
2022-11-27T03:39:49.767Z,99.52
2022-11-27T03:42:25.425Z,99.51
2022-11-27T03:45:10.070Z,99.60
2022-11-27T03:47:54.412Z,99.21
2022-11-27T03:50:48.473Z,99.39
2022-11-27T03:53:24.225Z,99.59
2022-11-27T03:56:10.041Z,99.25
2022-11-27T03:58:46.583Z,99.52
2022-11-27T04:01:20.202Z,99.41
2022-11-27T04:03:51.559Z,99.81
2022-11-27T04:06:25.891Z,99.55
2022-11-27T04:08:55.106Z,99.05
2022-11-27T04:11:24.286Z,99.27
2022-11-27T04:13:59.344Z,99.43
2022-11-27T04:16:28.548Z,99.25
2022-11-27T04:18:59.978Z,99.29
2022-11-27T04:21:29.620Z,99.24
2022-11-27T04:23:58.902Z,98.99
2022-11-27T04:26:28.143Z,99.26
2022-11-27T04:28:57.451Z,98.96
2022-11-27T04:31:26.672Z,99.29
2022-11-27T04:36:38.867Z,98.90
2022-11-27T04:39:08.829Z,99.16
2022-11-27T04:41:37.998Z,98.76
2022-11-27T04:44:07.401Z,98.74
2022-11-27T04:46:36.799Z,98.83
2022-11-27T04:49:06.398Z,98.73
2022-11-27T04:51:37.785Z,98.95
2022-11-27T04:54:07.062Z,98.94
2022-11-27T04:56:36.139Z,98.58
2022-11-27T04:59:06.150Z,99.23
2022-11-27T05:01:35.383Z,98.74
2022-11-27T05:04:04.967Z,99.50
2022-11-27T05:06:35.655Z,100.00
2022-11-27T05:09:12.041Z,100.00
2022-11-27T05:11:41.312Z,100.00
2022-11-27T05:14:21.479Z,100.00
2022-11-27T05:16:52.704Z,100.00
2022-11-27T05:19:23.834Z,100.00
2022-11-27T05:21:54.706Z,100.00
2022-11-27T05:24:27.797Z,100.00
2022-11-27T05:26:58.064Z,100.00
2022-11-27T05:32:02.623Z,100.00
2022-11-27T05:34:31.748Z,100.00
2022-11-27T05:39:52.972Z,100.00
2022-11-27T05:42:22.368Z,100.00
2022-11-27T05:44:56.720Z,100.00
2022-11-27T05:47:27.625Z,100.00
2022-11-27T05:49:56.919Z,100.00
2022-11-27T05:52:26.226Z,100.00
2022-11-27T05:54:57.498Z,100.00
2022-11-27T05:57:27.785Z,100.00
2022-11-27T05:59:57.469Z,100.00
2022-11-27T06:02:34.797Z,100.00
2022-11-27T06:05:04.186Z,100.00
2022-11-27T06:07:33.874Z,100.00
2022-11-27T06:10:05.612Z,100.00
2022-11-27T06:12:34.944Z,100.00
2022-11-27T06:15:04.061Z,99.92
2022-11-27T06:17:33.416Z,100.00
2022-11-27T06:20:02.631Z,99.61
2022-11-27T06:22:33.552Z,99.86
2022-11-27T06:25:05.241Z,99.35
2022-11-27T06:27:35.484Z,99.54
2022-11-27T06:30:07.097Z,98.96
2022-11-27T06:32:47.195Z,99.18
2022-11-27T06:35:19.484Z,99.05
2022-11-27T06:37:48.768Z,99.82
2022-11-27T06:40:20.165Z,99.62
2022-11-27T06:42:49.429Z,99.45
2022-11-27T06:47:53.645Z,99.97
2022-11-27T06:50:22.767Z,100.00
2022-11-27T06:52:51.959Z,99.99
2022-11-27T06:55:23.193Z,99.91
2022-11-27T06:57:53.020Z,99.24
2022-11-27T07:00:22.951Z,99.13
2022-11-27T07:02:56.122Z,99.02
2022-11-27T07:05:26.354Z,98.85
2022-11-27T07:07:55.514Z,98.63
2022-11-27T07:10:31.786Z,98.93
2022-11-27T07:13:01.105Z,98.58
2022-11-27T07:15:30.364Z,98.74
2022-11-27T07:18:00.028Z,98.60
2022-11-27T07:20:29.236Z,98.29
2022-11-27T07:22:58.521Z,98.17
2022-11-27T07:25:29.743Z,97.86
2022-11-27T07:27:59.020Z,97.86
2022-11-27T07:30:28.242Z,97.89
2022-11-27T07:32:57.717Z,97.77
2022-11-27T07:35:27.710Z,97.99
2022-11-27T07:37:56.907Z,98.19
2022-11-27T07:40:26.196Z,98.58
2022-11-27T07:42:57.470Z,98.35
2022-11-27T07:45:26.794Z,98.33
2022-11-27T07:47:56.178Z,98.21
2022-11-27T07:50:25.630Z,98.44
2022-11-27T07:52:54.929Z,98.50
2022-11-27T07:55:24.269Z,98.49
2022-11-27T07:57:53.576Z,99.04
2022-11-27T08:00:25.399Z,98.86
2022-11-27T08:03:00.723Z,98.53
2022-11-27T08:05:35.630Z,98.75
2022-11-27T08:08:06.337Z,98.19
2022-11-27T08:10:38.096Z,97.31
2022-11-27T08:13:08.526Z,97.72
2022-11-27T08:15:39.690Z,97.64
2022-11-27T08:18:09.029Z,96.63
2022-11-27T08:20:43.589Z,96.39
2022-11-27T08:23:12.822Z,97.16
2022-11-27T08:25:42.411Z,96.21
2022-11-27T08:28:11.756Z,96.56
2022-11-27T08:30:42.947Z,95.88
2022-11-27T08:33:19.248Z,95.85
2022-11-27T08:35:50.638Z,96.25
2022-11-27T08:38:25.775Z,96.50
2022-11-27T08:40:59.126Z,95.87
2022-11-27T08:43:29.035Z,94.97
2022-11-27T08:46:00.657Z,94.57
2022-11-27T08:48:30.162Z,94.31
2022-11-27T08:50:59.323Z,94.10
2022-11-27T08:53:31.570Z,94.64
2022-11-27T08:56:08.348Z,94.79
2022-11-27T08:58:42.850Z,95.09
2022-11-27T09:01:17.048Z,94.91
2022-11-27T09:03:51.813Z,94.68
2022-11-27T09:06:26.122Z,94.79
2022-11-27T09:09:03.263Z,94.63
2022-11-27T09:11:33.295Z,94.84
2022-11-27T09:14:02.874Z,94.45
2022-11-27T09:16:39.494Z,94.09
2022-11-27T09:19:08.784Z,94.24
2022-11-27T09:21:38.396Z,94.03
2022-11-27T09:24:08.654Z,94.48
2022-11-27T09:26:38.039Z,94.19
2022-11-27T09:29:07.364Z,94.26
2022-11-27T09:31:38.614Z,94.20
2022-11-27T09:34:07.984Z,95.01
2022-11-27T09:36:37.596Z,94.89
2022-11-27T09:39:06.964Z,94.85
2022-11-27T09:41:43.461Z,94.76
2022-11-27T09:44:42.377Z,94.39
2022-11-27T09:47:20.176Z,94.57
2022-11-27T09:50:00.411Z,94.94
2022-11-27T09:52:37.737Z,94.57
2022-11-27T09:55:17.156Z,95.28
2022-11-27T09:57:55.617Z,94.91
2022-11-27T10:00:25.335Z,95.53
2022-11-27T10:02:56.715Z,95.53
2022-11-27T10:05:43.817Z,95.39
2022-11-27T10:08:37.765Z,94.71
2022-11-27T10:11:20.571Z,94.15
2022-11-27T10:14:05.198Z,94.72
2022-11-27T10:16:44.516Z,94.44
2022-11-27T10:19:36.307Z,94.15
2022-11-27T10:25:01.705Z,94.56
2022-11-27T10:27:44.145Z,94.39
2022-11-27T10:30:18.370Z,94.04
2022-11-27T10:32:55.423Z,94.67
2022-11-27T10:35:34.866Z,94.88
2022-11-27T10:38:11.053Z,94.39
2022-11-27T10:40:44.776Z,94.29
2022-11-27T10:43:19.023Z,94.12
2022-11-27T10:45:51.904Z,94.22
2022-11-27T10:48:21.816Z,93.75
2022-11-27T10:50:53.086Z,94.17
2022-11-27T10:53:30.873Z,94.16
2022-11-27T10:56:23.475Z,93.96
2022-11-27T10:58:57.365Z,93.88
2022-11-27T11:01:30.166Z,94.19
2022-11-27T11:04:24.655Z,94.46
2022-11-27T11:07:00.189Z,95.45
2022-11-27T11:09:29.985Z,95.90
2022-11-27T11:12:09.424Z,95.16
2022-11-27T11:14:39.298Z,96.57
2022-11-27T11:17:18.183Z,96.19
2022-11-27T11:19:48.705Z,95.86
2022-11-27T11:22:20.415Z,96.00
2022-11-27T11:24:55.738Z,96.38
2022-11-27T11:27:29.807Z,96.83
2022-11-27T11:30:11.936Z,97.62
2022-11-27T11:32:42.392Z,97.16
2022-11-27T11:35:26.118Z,96.53
2022-11-27T11:37:58.433Z,97.13
2022-11-27T11:40:36.718Z,96.97
2022-11-27T11:43:09.647Z,97.77
2022-11-27T11:45:48.384Z,98.11
2022-11-27T11:48:24.378Z,98.50
2022-11-27T11:50:57.564Z,99.44
2022-11-27T11:53:35.758Z,98.80
2022-11-27T11:56:18.985Z,98.73
2022-11-27T11:58:56.069Z,98.33
2022-11-27T12:01:40.601Z,98.19
2022-11-27T12:04:33.349Z,99.29
2022-11-27T12:07:14.659Z,98.43
2022-11-27T12:10:02.097Z,98.62
2022-11-27T12:12:48.915Z,98.60
2022-11-27T12:15:26.889Z,98.54
2022-11-27T12:18:02.466Z,98.48
2022-11-27T12:20:47.856Z,98.45
2022-11-27T12:23:42.109Z,98.44
2022-11-27T12:26:24.474Z,98.14
2022-11-27T12:29:15.009Z,97.79
2022-11-27T12:32:09.757Z,98.10
2022-11-27T12:34:50.663Z,98.37
2022-11-27T12:37:37.922Z,99.33
2022-11-27T12:40:27.065Z,99.54
2022-11-27T12:43:10.282Z,99.57
2022-11-27T12:45:45.000Z,99.52
2022-11-27T12:55:24.938Z,100.00
2022-11-27T12:57:59.848Z,100.00
2022-11-27T13:00:32.843Z,100.00
2022-11-27T13:03:18.208Z,100.00
2022-11-27T13:05:51.676Z,100.00
2022-11-27T13:08:26.125Z,100.00
2022-11-27T13:11:08.622Z,100.00
2022-11-27T13:13:44.306Z,100.00
2022-11-27T13:16:34.276Z,100.00
2022-11-27T13:19:18.060Z,100.00
2022-11-27T13:21:49.634Z,100.00
2022-11-27T13:24:19.160Z,100.00
2022-11-27T13:26:58.093Z,100.00
2022-11-27T13:29:30.947Z,100.00
2022-11-27T13:32:04.263Z,100.00
2022-11-27T13:34:44.059Z,100.00
2022-11-27T13:37:29.208Z,100.00
2022-11-27T13:40:03.593Z,100.00
2022-11-27T13:42:37.464Z,100.00
2022-11-27T13:45:11.419Z,100.00
2022-11-27T13:47:44.753Z,100.00
2022-11-27T13:50:16.448Z,100.00
2022-11-27T13:52:56.933Z,100.00
2022-11-27T13:55:28.815Z,100.00
2022-11-27T13:58:01.131Z,100.00
2022-11-27T14:00:36.407Z,100.00
2022-11-27T14:03:24.303Z,100.00
2022-11-27T14:05:53.841Z,100.00
2022-11-27T14:08:25.870Z,100.00
2022-11-27T14:11:01.746Z,100.00
2022-11-27T14:13:41.309Z,100.00
2022-11-27T14:16:29.820Z,100.00
2022-11-27T14:19:01.072Z,100.00
2022-11-27T14:21:42.324Z,100.00
2022-11-27T14:24:30.135Z,100.00
2022-11-27T14:27:04.560Z,100.00
2022-11-27T14:29:35.844Z,100.00
2022-11-27T14:32:07.880Z,100.00
2022-11-27T14:34:48.342Z,100.00
2022-11-27T14:37:26.628Z,100.00
2022-11-27T14:39:56.755Z,100.00
2022-11-27T14:42:29.346Z,100.00
2022-11-27T14:45:13.278Z,100.00
2022-11-27T14:47:49.099Z,100.00
2022-11-27T14:50:19.504Z,100.00
2022-11-27T14:52:53.710Z,100.00
2022-11-27T14:55:24.211Z,100.00
2022-11-27T14:57:54.069Z,100.00
2022-11-27T15:00:27.396Z,100.00
2022-11-27T15:02:57.085Z,100.00
2022-11-27T15:05:28.746Z,100.00
2022-11-27T15:08:05.523Z,100.00
2022-11-27T15:10:38.841Z,100.00
2022-11-27T15:13:10.177Z,100.00
2022-11-27T15:15:46.027Z,100.00
2022-11-27T15:18:24.204Z,100.00
2022-11-27T15:21:00.346Z,100.00
2022-11-27T15:23:33.992Z,100.00
2022-11-27T15:26:15.847Z,100.00
2022-11-27T15:28:53.675Z,100.00
2022-11-27T15:31:32.641Z,100.00
2022-11-27T15:34:04.784Z,100.00
2022-11-27T15:36:45.469Z,100.00
2022-11-27T15:39:22.504Z,100.00
2022-11-27T15:41:53.524Z,100.00
2022-11-27T15:44:23.248Z,100.00
2022-11-27T15:47:01.406Z,100.00
2022-11-27T15:49:31.222Z,100.00
2022-11-27T15:52:00.576Z,100.00
2022-11-27T15:54:30.188Z,100.00
2022-11-27T15:56:59.586Z,100.00
2022-11-27T15:59:33.949Z,100.00
2022-11-27T16:02:17.563Z,100.00
2022-11-27T16:04:47.625Z,100.00
2022-11-27T16:07:17.100Z,100.00
2022-11-27T16:09:51.515Z,100.00
2022-11-27T16:12:20.867Z,100.00
2022-11-27T16:14:50.071Z,100.00
2022-11-27T16:17:21.304Z,100.00
2022-11-27T16:19:50.648Z,100.00
2022-11-27T16:22:22.937Z,100.00
2022-11-27T16:24:52.423Z,100.00
2022-11-27T16:27:21.685Z,100.00
2022-11-27T16:29:52.340Z,100.00
2022-11-27T16:32:23.764Z,100.00
2022-11-27T16:34:59.747Z,100.00
2022-11-27T16:37:29.620Z,100.00
2022-11-27T16:39:58.883Z,100.00
2022-11-27T16:42:28.343Z,100.00
2022-11-27T16:44:57.512Z,100.00
2022-11-27T16:47:33.466Z,100.00
2022-11-27T16:50:04.211Z,100.00
2022-11-27T16:53:02.484Z,100.00
2022-11-27T16:55:32.287Z,100.00
2022-11-27T16:58:06.091Z,100.00
2022-11-27T17:00:38.647Z,100.00
2022-11-27T17:03:10.582Z,100.00
2022-11-27T17:05:47.537Z,100.00
2022-11-27T17:08:24.891Z,100.00
2022-11-27T17:10:56.811Z,100.00
2022-11-27T17:13:32.034Z,100.00
2022-11-27T17:16:03.406Z,100.00
2022-11-27T17:18:35.534Z,100.00
2022-11-27T17:21:08.317Z,100.00
2022-11-27T17:23:38.056Z,100.00
2022-11-27T17:26:12.085Z,100.00
2022-11-27T17:28:55.709Z,100.00
2022-11-27T17:31:32.294Z,100.00
2022-11-27T17:34:05.379Z,100.00
2022-11-27T17:36:43.307Z,100.00
2022-11-27T17:39:16.768Z,100.00
2022-11-27T17:41:46.687Z,100.00
2022-11-27T17:44:21.525Z,100.00
2022-11-27T17:47:06.411Z,100.00
2022-11-27T17:49:40.553Z,100.00
2022-11-27T17:52:17.115Z,100.00
2022-11-27T17:54:48.409Z,100.00
2022-11-27T17:57:18.506Z,100.00
2022-11-27T17:59:52.368Z,100.00
2022-11-27T18:02:29.315Z,100.00
2022-11-27T18:07:43.703Z,100.00
2022-11-27T18:10:15.738Z,100.00
2022-11-27T18:12:50.118Z,100.00
2022-11-27T18:15:32.568Z,100.00
2022-11-27T18:18:02.882Z,100.00
2022-11-27T18:20:34.706Z,100.00
2022-11-27T18:23:13.767Z,100.00
2022-11-27T18:28:24.905Z,100.00
2022-11-27T18:31:00.524Z,100.00
2022-11-27T18:33:39.112Z,100.00
2022-11-27T18:36:17.333Z,100.00
2022-11-27T18:38:49.650Z,100.00
2022-11-27T18:41:21.631Z,100.00
2022-11-27T18:43:53.117Z,100.00
2022-11-27T18:46:31.706Z,100.00
2022-11-27T18:49:02.591Z,100.00
2022-11-27T18:51:35.896Z,100.00
2022-11-27T18:54:13.330Z,100.00
2022-11-27T18:56:43.094Z,100.00
2022-11-27T18:59:20.967Z,100.00
2022-11-27T19:01:50.667Z,100.00
2022-11-27T19:04:25.239Z,100.00
2022-11-27T19:07:00.576Z,100.00
2022-11-27T19:09:31.717Z,100.00
2022-11-27T19:12:05.519Z,100.00
2022-11-27T19:14:36.022Z,100.00
2022-11-27T19:17:05.924Z,100.00
2022-11-27T19:22:29.700Z,100.00
2022-11-27T19:25:00.375Z,100.00
2022-11-27T19:27:37.107Z,100.00
2022-11-27T19:30:09.353Z,100.00
2022-11-27T19:32:47.765Z,100.00
2022-11-27T19:35:23.953Z,100.00
2022-11-27T19:38:05.727Z,100.00
2022-11-27T19:40:38.327Z,100.00
2022-11-27T19:43:10.827Z,100.00
2022-11-27T19:45:40.630Z,100.00
2022-11-27T19:48:10.227Z,100.00
2022-11-27T19:50:41.024Z,100.00
2022-11-27T19:53:15.358Z,100.00
2022-11-27T19:55:45.163Z,100.00
2022-11-27T19:58:15.024Z,100.00
2022-11-27T20:00:44.522Z,100.00
2022-11-27T20:03:14.332Z,100.00
2022-11-27T20:05:43.889Z,100.00
2022-11-27T20:10:53.805Z,100.00
2022-11-27T20:13:23.538Z,100.00
2022-11-27T20:15:58.059Z,100.00
2022-11-27T20:18:27.872Z,100.00
2022-11-27T20:21:11.496Z,100.00
2022-11-27T20:23:45.295Z,100.00
2022-11-27T20:26:17.142Z,100.00
2022-11-27T20:28:47.796Z,100.00
2022-11-27T20:31:27.956Z,100.00
2022-11-27T20:34:00.261Z,100.00
2022-11-27T20:36:39.824Z,100.00
2022-11-27T20:39:19.239Z,100.00
2022-11-27T20:42:03.143Z,100.00
2022-11-27T20:44:32.599Z,100.00
2022-11-27T20:47:01.799Z,100.00
2022-11-27T20:52:19.395Z,100.00
2022-11-27T20:54:50.861Z,100.00
2022-11-27T20:57:20.485Z,100.00
2022-11-27T20:59:49.956Z,100.00
2022-11-27T21:02:19.453Z,100.00
2022-11-27T21:04:48.815Z,100.00
2022-11-27T21:07:19.038Z,100.00
2022-11-27T21:09:50.888Z,100.00
2022-11-27T21:12:20.191Z,100.00
2022-11-27T21:14:49.439Z,100.00
2022-11-27T21:17:19.382Z,100.00
2022-11-27T21:19:48.638Z,100.00
2022-11-27T21:22:21.809Z,100.00
2022-11-27T21:24:54.058Z,100.00
2022-11-27T21:27:25.355Z,100.00
2022-11-27T21:30:00.630Z,100.00
2022-11-27T21:32:31.083Z,100.00
2022-11-27T21:35:00.350Z,100.00
2022-11-27T21:37:39.966Z,100.00
2022-11-27T21:40:17.901Z,100.00
2022-11-27T21:42:47.421Z,100.00
2022-11-27T21:45:16.838Z,100.00
2022-11-27T21:47:47.044Z,100.00
2022-11-27T21:50:21.572Z,100.00
2022-11-27T21:53:02.186Z,100.00
2022-11-27T21:55:33.708Z,100.00
2022-11-27T21:58:03.115Z,100.00
2022-11-27T22:00:32.412Z,100.00
2022-11-27T22:03:01.726Z,100.00
2022-11-27T22:05:31.065Z,100.00
2022-11-27T22:08:00.498Z,100.00
2022-11-27T22:10:29.916Z,100.00
2022-11-27T22:13:01.337Z,100.00
2022-11-27T22:15:31.911Z,100.00
2022-11-27T22:18:01.263Z,100.00
2022-11-27T22:20:30.641Z,100.00
2022-11-27T22:23:00.312Z,100.00
2022-11-27T22:25:30.322Z,100.00
2022-11-27T22:30:43.409Z,100.00
2022-11-27T22:33:17.900Z,100.00
2022-11-27T22:35:47.143Z,100.00
2022-11-27T22:38:16.386Z,100.00
2022-11-27T22:40:47.052Z,100.00
2022-11-27T22:43:18.398Z,100.00
2022-11-27T22:45:48.777Z,100.00
2022-11-27T22:48:18.534Z,100.00
2022-11-27T22:50:48.033Z,100.00
2022-11-27T22:53:17.206Z,100.00
2022-11-27T22:55:46.377Z,100.00
2022-11-27T22:58:17.538Z,100.00
2022-11-27T23:00:47.076Z,100.00
2022-11-27T23:03:16.512Z,100.00
2022-11-27T23:08:22.400Z,100.00
2022-11-27T23:10:52.212Z,100.00
2022-11-27T23:13:23.478Z,100.00
2022-11-27T23:15:53.956Z,100.00
2022-11-27T23:18:28.218Z,100.00
2022-11-27T23:20:57.632Z,100.00
2022-11-27T23:23:26.858Z,100.00
2022-11-27T23:25:57.146Z,100.00
2022-11-27T23:28:28.375Z,100.00
2022-11-27T23:31:15.614Z,100.00
2022-11-27T23:33:47.062Z,100.00
2022-11-27T23:36:16.188Z,100.00
2022-11-27T23:38:45.438Z,100.00
2022-11-27T23:41:21.672Z,100.00
2022-11-27T23:43:53.847Z,100.00
2022-11-27T23:46:31.122Z,100.00
2022-11-27T23:49:02.043Z,100.00
2022-11-27T23:51:33.159Z,100.00
2022-11-27T23:54:03.256Z,100.00
2022-11-27T23:56:44.565Z,100.00
2022-11-27T23:59:15.843Z,100.00
